Boltshope Park, United Kingdom
Current Conditions -  °F | °C
As of 5:20 PM on Tuesday 21 Oct 2014 (Local Time) from EGNT Reporting Station
Few Clouds Few Clouds  
Wind Chill: 39°   Ceiling: Unl
Heat Index: 46°   Visibility: 6mi
Dew Point: 32°   Wind: 21mph
Humidity: 57%   Direction: 290°WNW
Pressure: 29.65"   Gusts: NA
Location:  54.82°N, 2.08°W
Report Text: EGNT 211620Z 29018KT 9999 FEW035 08/00 Q1004
Loading
Personal Weather Stations






























Interactive Weather Map
Tropical Storm Tracking
New forecast layout! Learn more

10-Day Weather Forecast

Advertisements
Track Severe Weather on mobile